createdAt,value
2023-01-21T00:00:01.178Z,53.10
2023-01-21T00:01:32.934Z,56.80
2023-01-21T00:03:04.719Z,54.40
2023-01-21T00:04:38.108Z,56.10
2023-01-21T00:06:15.093Z,52.00
2023-01-21T00:07:46.872Z,61.20
2023-01-21T00:09:18.660Z,53.40
2023-01-21T00:10:50.460Z,53.60
2023-01-21T00:12:22.980Z,55.80
2023-01-21T00:13:54.768Z,56.30
2023-01-21T00:15:26.512Z,59.30
2023-01-21T00:16:58.970Z,59.20
2023-01-21T00:18:31.262Z,54.30
2023-01-21T00:20:05.304Z,54.40
2023-01-21T00:21:37.053Z,59.00
2023-01-21T00:23:10.867Z,56.40
2023-01-21T00:24:42.612Z,60.20
2023-01-21T00:26:14.692Z,55.60
2023-01-21T00:27:46.625Z,58.30
2023-01-21T00:29:18.703Z,55.20
2023-01-21T00:30:52.449Z,64.20
2023-01-21T00:32:24.382Z,62.40
2023-01-21T00:33:56.254Z,54.20
2023-01-21T00:35:28.029Z,59.60
2023-01-21T00:36:59.745Z,57.30
2023-01-21T00:38:32.432Z,56.80
2023-01-21T00:40:08.109Z,57.40
2023-01-21T00:41:39.918Z,53.70
2023-01-21T00:43:11.646Z,56.20
2023-01-21T00:44:43.426Z,55.30
2023-01-21T00:46:15.225Z,56.50
2023-01-21T00:47:47.332Z,54.60
2023-01-21T00:49:19.051Z,56.50
2023-01-21T00:50:51.620Z,55.50
2023-01-21T00:52:23.431Z,56.90
2023-01-21T00:53:55.306Z,62.60
2023-01-21T00:55:27.029Z,58.60
2023-01-21T00:56:59.386Z,52.10
2023-01-21T00:58:31.890Z,53.40
2023-01-21T01:00:04.936Z,51.20
2023-01-21T01:01:38.578Z,50.60
2023-01-21T01:03:10.996Z,54.30
2023-01-21T01:04:42.924Z,53.80
2023-01-21T01:06:24.008Z,56.40
2023-01-21T01:07:55.708Z,55.00
2023-01-21T01:09:27.589Z,55.50
2023-01-21T01:11:00.265Z,55.40
2023-01-21T01:12:31.951Z,50.50
2023-01-21T01:14:03.673Z,55.90
2023-01-21T01:15:35.454Z,57.70
2023-01-21T01:17:07.239Z,56.60
2023-01-21T01:18:38.987Z,56.10
2023-01-21T01:20:11.546Z,52.20
2023-01-21T01:21:43.352Z,59.00
2023-01-21T01:23:15.489Z,56.60
2023-01-21T01:24:47.623Z,54.00
2023-01-21T01:26:22.058Z,59.10
2023-01-21T01:27:53.856Z,59.60
2023-01-21T01:29:25.583Z,55.80
2023-01-21T01:30:58.359Z,56.50
2023-01-21T01:32:30.178Z,53.80
2023-01-21T01:34:02.285Z,57.70
2023-01-21T01:35:34.073Z,55.70
2023-01-21T01:37:05.940Z,54.70
2023-01-21T01:38:37.736Z,56.40
2023-01-21T01:40:11.287Z,54.00
2023-01-21T01:41:43.017Z,54.00
2023-01-21T01:43:50.018Z,55.30
2023-01-21T01:45:22.083Z,50.70
2023-01-21T01:46:59.456Z,48.40
2023-01-21T01:48:32.478Z,50.40
2023-01-21T01:50:11.310Z,45.90
2023-01-21T01:51:48.923Z,54.50
2023-01-21T01:53:21.037Z,54.40
2023-01-21T01:54:57.458Z,58.10
2023-01-21T01:56:30.689Z,53.60
2023-01-21T01:58:06.771Z,57.90
2023-01-21T01:59:41.129Z,61.60
2023-01-21T02:01:13.213Z,66.40
2023-01-21T02:03:05.655Z,59.80
2023-01-21T02:04:49.983Z,60.10
2023-01-21T02:06:21.737Z,47.70
2023-01-21T02:07:53.627Z,54.80
2023-01-21T02:09:30.018Z,49.60
2023-01-21T02:11:02.752Z,44.70
2023-01-21T02:12:36.964Z,53.90
2023-01-21T02:14:08.835Z,59.00
2023-01-21T02:16:23.850Z,67.60
2023-01-21T02:18:10.426Z,54.00
2023-01-21T02:19:59.100Z,58.40
2023-01-21T02:22:06.727Z,51.80
2023-01-21T02:24:23.469Z,60.50
2023-01-21T02:27:09.019Z,46.30
2023-01-21T02:29:12.926Z,57.00
2023-01-21T02:31:12.613Z,57.50
2023-01-21T02:33:15.349Z,63.40
2023-01-21T02:35:01.285Z,56.80
2023-01-21T02:37:11.124Z,59.80
2023-01-21T02:39:22.215Z,62.00
2023-01-21T02:41:15.726Z,60.70
2023-01-21T02:43:30.882Z,57.60
2023-01-21T02:45:29.427Z,58.20
2023-01-21T02:47:22.883Z,51.70
2023-01-21T02:49:03.753Z,56.90
2023-01-21T02:50:50.687Z,65.00
2023-01-21T02:52:25.901Z,69.10
2023-01-21T02:53:57.652Z,66.10
2023-01-21T02:55:38.373Z,61.90
2023-01-21T02:57:19.832Z,67.50
2023-01-21T02:58:59.203Z,67.60
2023-01-21T03:00:42.861Z,66.10
2023-01-21T03:02:39.540Z,61.70
2023-01-21T03:04:38.342Z,62.30
2023-01-21T03:06:32.377Z,67.10
2023-01-21T03:08:09.674Z,68.40
2023-01-21T03:09:41.425Z,60.10
2023-01-21T03:11:20.329Z,69.70
2023-01-21T03:13:09.385Z,66.10
2023-01-21T03:15:09.298Z,65.00
2023-01-21T03:16:59.763Z,65.10
2023-01-21T03:18:42.365Z,66.00
2023-01-21T03:20:32.757Z,67.40
2023-01-21T03:22:14.932Z,67.70
2023-01-21T03:23:51.467Z,66.30
2023-01-21T03:25:25.539Z,63.40
2023-01-21T03:27:01.915Z,66.10
2023-01-21T03:28:42.621Z,63.20
2023-01-21T03:30:24.060Z,61.10
2023-01-21T03:32:03.950Z,63.70
2023-01-21T03:33:42.362Z,62.70
2023-01-21T03:35:29.704Z,62.00
2023-01-21T03:37:10.369Z,59.80
2023-01-21T03:38:51.358Z,52.70
2023-01-21T03:40:40.293Z,60.30
2023-01-21T03:42:14.027Z,59.70
2023-01-21T03:43:45.953Z,65.20
2023-01-21T03:45:33.451Z,74.00
2023-01-21T03:47:23.167Z,60.00
2023-01-21T03:49:02.183Z,64.10
2023-01-21T03:50:46.023Z,64.30
2023-01-21T03:52:22.769Z,66.70
2023-01-21T03:53:59.656Z,69.30
2023-01-21T03:55:31.577Z,71.80
2023-01-21T03:57:03.571Z,59.90
2023-01-21T03:58:35.328Z,71.20
2023-01-21T04:00:09.799Z,67.70
2023-01-21T04:01:41.779Z,55.20
2023-01-21T04:03:13.581Z,66.90
2023-01-21T04:04:45.577Z,69.20
2023-01-21T04:06:21.730Z,65.30
2023-01-21T04:07:53.480Z,63.70
2023-01-21T04:09:25.171Z,68.70
2023-01-21T04:10:56.820Z,61.00
2023-01-21T04:12:28.593Z,58.20
2023-01-21T04:14:00.540Z,72.80
2023-01-21T04:15:32.263Z,66.40
2023-01-21T04:17:04.893Z,62.20
2023-01-21T04:18:36.620Z,63.40
2023-01-21T04:20:09.367Z,73.80
2023-01-21T04:21:41.074Z,64.70
2023-01-21T04:23:12.935Z,67.80
2023-01-21T04:24:44.711Z,62.20
2023-01-21T04:26:16.538Z,67.80
2023-01-21T04:27:48.225Z,61.20
2023-01-21T04:29:20.624Z,64.20
2023-01-21T04:30:52.403Z,59.40
2023-01-21T04:32:24.247Z,53.20
2023-01-21T04:33:55.925Z,60.60
2023-01-21T04:35:27.692Z,66.60
2023-01-21T04:36:59.431Z,70.80
2023-01-21T04:38:33.431Z,61.00
2023-01-21T04:40:06.076Z,68.20
2023-01-21T04:41:37.817Z,64.20
2023-01-21T04:43:09.724Z,72.40
2023-01-21T04:44:41.486Z,64.50
2023-01-21T04:46:13.294Z,72.10
2023-01-21T04:47:45.747Z,64.60
2023-01-21T04:49:17.551Z,69.30
2023-01-21T04:50:49.376Z,65.30
2023-01-21T04:52:21.300Z,66.40
2023-01-21T04:53:53.039Z,69.20
2023-01-21T04:55:26.331Z,77.00
2023-01-21T04:56:59.192Z,64.80
2023-01-21T04:58:30.975Z,69.10
2023-01-21T05:00:05.641Z,71.80
2023-01-21T05:01:37.441Z,72.80
2023-01-21T05:03:09.144Z,61.40
2023-01-21T05:04:40.789Z,72.90
2023-01-21T05:06:12.506Z,70.50
2023-01-21T05:07:44.212Z,70.30
2023-01-21T05:09:15.966Z,67.10
2023-01-21T05:10:47.821Z,70.80
2023-01-21T05:12:20.079Z,63.10
2023-01-21T05:13:51.781Z,67.10
2023-01-21T05:15:23.658Z,69.70
2023-01-21T05:16:55.485Z,69.50
2023-01-21T05:18:27.259Z,68.90
2023-01-21T05:19:59.027Z,62.00
2023-01-21T05:21:30.844Z,63.30
2023-01-21T05:23:02.630Z,76.10
2023-01-21T05:24:34.360Z,77.40
2023-01-21T05:26:06.597Z,90.20
2023-01-21T05:27:38.335Z,101.60
2023-01-21T05:29:10.648Z,117.00
2023-01-21T05:30:44.494Z,100.80
2023-01-21T05:32:16.491Z,121.90
2023-01-21T05:33:51.194Z,120.40
2023-01-21T05:35:24.261Z,121.70
2023-01-21T05:36:55.965Z,132.00
2023-01-21T05:38:28.980Z,144.40
2023-01-21T05:40:00.778Z,131.80
2023-01-21T05:41:33.092Z,137.40
2023-01-21T05:43:04.857Z,148.40
2023-01-21T05:44:36.567Z,141.20
2023-01-21T05:46:08.325Z,145.60
2023-01-21T05:47:40.323Z,142.20
2023-01-21T05:49:12.060Z,150.60
2023-01-21T05:50:44.050Z,148.40
2023-01-21T05:52:15.777Z,149.80
2023-01-21T05:53:47.609Z,152.50
2023-01-21T05:55:19.256Z,158.40
2023-01-21T05:56:50.981Z,161.50
2023-01-21T05:58:24.385Z,166.50
2023-01-21T05:59:56.231Z,165.40
2023-01-21T06:01:27.980Z,165.20
2023-01-21T06:03:04.306Z,154.70
2023-01-21T06:04:36.068Z,171.50
2023-01-21T06:06:08.363Z,150.90
2023-01-21T06:07:40.116Z,157.70
2023-01-21T06:09:11.903Z,170.70
2023-01-21T06:10:44.264Z,177.70
2023-01-21T06:12:16.094Z,165.70
2023-01-21T06:13:48.253Z,175.00
2023-01-21T06:15:20.482Z,158.40
2023-01-21T06:16:52.181Z,177.30
2023-01-21T06:18:24.468Z,168.80
2023-01-21T06:19:56.140Z,182.80
2023-01-21T06:21:27.971Z,177.00
2023-01-21T06:23:02.053Z,186.20
2023-01-21T06:24:33.809Z,192.70
2023-01-21T06:26:05.672Z,193.00
2023-01-21T06:27:38.382Z,184.40
2023-01-21T06:29:10.137Z,187.20
2023-01-21T06:30:41.859Z,172.20
2023-01-21T06:32:13.684Z,157.20
2023-01-21T06:33:45.373Z,187.60
2023-01-21T06:35:17.967Z,175.40
2023-01-21T06:36:49.673Z,153.00
2023-01-21T06:38:21.424Z,156.50
2023-01-21T06:39:53.602Z,179.70
2023-01-21T06:41:25.313Z,179.10
2023-01-21T06:42:57.107Z,187.60
2023-01-21T06:44:28.851Z,161.10
2023-01-21T06:46:00.658Z,160.30
2023-01-21T06:47:32.435Z,167.10
2023-01-21T06:49:04.338Z,149.30
2023-01-21T06:50:36.553Z,164.00
2023-01-21T06:52:09.280Z,172.60
2023-01-21T06:53:40.990Z,146.00
2023-01-21T06:55:14.433Z,155.90
2023-01-21T06:56:46.156Z,175.40
2023-01-21T06:58:17.866Z,136.20
2023-01-21T06:59:49.668Z,142.60
2023-01-21T07:01:21.539Z,167.90
2023-01-21T07:02:57.965Z,127.60
2023-01-21T07:04:30.586Z,177.70
2023-01-21T07:06:02.300Z,170.80
2023-01-21T07:07:34.024Z,148.90
2023-01-21T07:09:07.640Z,176.50
2023-01-21T07:10:39.367Z,161.60
2023-01-21T07:12:11.129Z,167.30
2023-01-21T07:13:42.950Z,160.70
2023-01-21T07:15:15.154Z,153.80
2023-01-21T07:16:47.016Z,145.40
2023-01-21T07:18:18.824Z,162.30
2023-01-21T07:19:50.600Z,153.90
2023-01-21T07:21:25.050Z,148.20
2023-01-21T07:22:56.807Z,149.60
2023-01-21T07:24:28.749Z,146.90
2023-01-21T07:26:00.499Z,151.40
2023-01-21T07:27:32.279Z,141.50
2023-01-21T07:29:06.508Z,152.10
2023-01-21T07:30:38.360Z,131.80
2023-01-21T07:32:10.207Z,135.90
2023-01-21T07:33:41.928Z,156.50
2023-01-21T07:35:14.445Z,134.40
2023-01-21T07:36:46.224Z,128.60
2023-01-21T07:38:18.303Z,146.50
2023-01-21T07:39:50.027Z,138.00
2023-01-21T07:41:22.270Z,141.70
2023-01-21T07:42:55.457Z,143.00
2023-01-21T07:44:27.454Z,136.80
2023-01-21T07:46:00.281Z,127.90
2023-01-21T07:47:32.148Z,124.50
2023-01-21T07:49:03.894Z,140.50
2023-01-21T07:50:35.727Z,137.40
2023-01-21T07:52:07.643Z,120.10
2023-01-21T07:53:39.606Z,132.50
2023-01-21T07:55:12.740Z,119.10
2023-01-21T07:56:44.587Z,134.60
2023-01-21T07:58:16.392Z,120.70
2023-01-21T07:59:48.139Z,92.50
2023-01-21T08:01:20.020Z,104.60
2023-01-21T08:02:53.962Z,112.10
2023-01-21T08:04:25.904Z,113.90
2023-01-21T08:05:57.638Z,111.00
2023-01-21T08:07:29.454Z,112.90
2023-01-21T08:09:01.197Z,104.00
2023-01-21T08:10:33.019Z,99.50
2023-01-21T08:12:07.234Z,109.20
2023-01-21T08:13:39.039Z,102.10
2023-01-21T08:15:12.111Z,95.70
2023-01-21T08:16:43.877Z,101.60
2023-01-21T08:18:15.611Z,104.90
2023-01-21T08:19:47.356Z,94.10
2023-01-21T08:21:20.860Z,83.50
2023-01-21T08:22:52.585Z,92.50
2023-01-21T08:24:24.300Z,84.10
2023-01-21T08:25:56.070Z,83.90
2023-01-21T08:27:27.864Z,84.00
2023-01-21T08:28:59.812Z,78.80
2023-01-21T08:30:31.690Z,83.50
2023-01-21T08:32:03.567Z,80.20
2023-01-21T08:33:36.917Z,74.50
2023-01-21T08:35:09.563Z,71.80
2023-01-21T08:36:41.272Z,74.70
2023-01-21T08:38:13.084Z,76.10
2023-01-21T08:39:44.856Z,73.30
2023-01-21T08:41:17.782Z,71.60
2023-01-21T08:42:49.531Z,72.50
2023-01-21T08:44:21.313Z,74.20
2023-01-21T08:45:56.866Z,69.40
2023-01-21T08:47:28.778Z,68.90
2023-01-21T08:49:00.682Z,67.90
2023-01-21T08:50:32.402Z,63.60
2023-01-21T08:52:04.279Z,59.20
2023-01-21T08:53:36.155Z,64.10
2023-01-21T08:55:08.428Z,59.20
2023-01-21T08:56:40.262Z,66.30
2023-01-21T08:58:12.018Z,60.80
2023-01-21T08:59:43.861Z,58.00
2023-01-21T09:01:16.013Z,56.60
2023-01-21T09:02:50.005Z,58.40
2023-01-21T09:04:23.706Z,59.00
2023-01-21T09:06:02.177Z,59.20
2023-01-21T09:07:33.908Z,51.80
2023-01-21T09:09:05.655Z,63.50
2023-01-21T09:10:56.490Z,58.10
2023-01-21T09:12:28.411Z,55.30
2023-01-21T09:14:03.459Z,56.60
2023-01-21T09:15:43.443Z,55.60
2023-01-21T09:17:15.207Z,51.20
2023-01-21T09:18:50.105Z,57.10
2023-01-21T09:20:21.946Z,53.10
2023-01-21T09:21:55.554Z,55.00
2023-01-21T09:23:28.155Z,57.70
2023-01-21T09:24:59.977Z,60.80
2023-01-21T09:26:31.721Z,56.20
2023-01-21T09:28:03.667Z,55.80
2023-01-21T09:29:35.927Z,57.00
2023-01-21T09:31:12.189Z,53.80
2023-01-21T09:32:44.031Z,50.90
2023-01-21T09:34:15.746Z,53.40
2023-01-21T09:35:54.714Z,55.70
2023-01-21T09:37:26.402Z,54.70
2023-01-21T09:38:59.545Z,54.70
2023-01-21T09:40:31.645Z,52.50
2023-01-21T09:42:03.647Z,50.10
2023-01-21T09:43:46.331Z,52.80
2023-01-21T09:45:22.112Z,52.00
2023-01-21T09:47:31.436Z,58.40
2023-01-21T09:49:09.779Z,48.70
2023-01-21T09:50:47.836Z,51.60
2023-01-21T09:52:43.863Z,52.40
2023-01-21T09:54:25.359Z,52.80
2023-01-21T09:56:02.483Z,49.10
2023-01-21T09:58:15.326Z,52.60
2023-01-21T10:00:11.766Z,51.80
2023-01-21T10:01:44.290Z,49.00
2023-01-21T10:03:44.309Z,54.20
2023-01-21T10:05:25.238Z,50.90
2023-01-21T10:07:11.809Z,47.90
2023-01-21T10:08:57.657Z,57.60
2023-01-21T10:11:01.694Z,51.20
2023-01-21T10:12:58.954Z,49.40
2023-01-21T10:15:00.400Z,52.40
2023-01-21T10:16:44.199Z,55.90
2023-01-21T10:18:24.996Z,56.50
2023-01-21T10:20:17.189Z,56.30
2023-01-21T10:21:53.761Z,55.10
2023-01-21T10:23:59.438Z,52.90
2023-01-21T10:25:34.293Z,52.40
2023-01-21T10:27:10.518Z,52.10
2023-01-21T10:28:50.805Z,59.70
2023-01-21T10:30:42.402Z,57.30
2023-01-21T10:32:21.062Z,63.20
2023-01-21T10:33:53.703Z,50.10
2023-01-21T10:36:19.619Z,56.70
2023-01-21T10:38:14.460Z,54.40
2023-01-21T10:39:53.876Z,52.50
2023-01-21T10:41:33.681Z,50.50
2023-01-21T10:43:35.156Z,53.00
2023-01-21T10:45:33.995Z,48.40
2023-01-21T10:47:39.191Z,57.00
2023-01-21T10:50:00.322Z,43.60
2023-01-21T10:51:52.411Z,40.70
2023-01-21T10:53:42.135Z,44.70
2023-01-21T10:55:43.133Z,46.60
2023-01-21T10:57:39.154Z,44.80
2023-01-21T10:59:17.580Z,48.20
2023-01-21T11:00:52.094Z,43.00
2023-01-21T11:02:32.755Z,44.40
2023-01-21T11:04:19.798Z,49.60
2023-01-21T11:05:51.531Z,48.20
2023-01-21T11:07:24.164Z,45.60
2023-01-21T11:09:02.951Z,45.30
2023-01-21T11:10:34.917Z,44.60
2023-01-21T11:12:11.998Z,41.30
2023-01-21T11:13:46.771Z,45.40
2023-01-21T11:15:21.401Z,47.60
2023-01-21T11:16:53.989Z,45.90
2023-01-21T11:18:38.776Z,47.20
2023-01-21T11:20:41.541Z,41.80
2023-01-21T11:22:18.862Z,43.00
2023-01-21T11:24:00.965Z,40.20
2023-01-21T11:25:42.477Z,42.50
2023-01-21T11:27:38.135Z,42.00
2023-01-21T11:29:15.511Z,42.00
2023-01-21T11:30:51.353Z,41.30
2023-01-21T11:32:27.439Z,36.50
2023-01-21T11:34:06.901Z,37.50
2023-01-21T11:35:38.824Z,37.50
2023-01-21T11:37:24.792Z,35.30
2023-01-21T11:39:04.262Z,37.30
2023-01-21T11:40:36.167Z,38.30
2023-01-21T11:42:16.429Z,36.60
2023-01-21T11:43:51.634Z,37.00
2023-01-21T11:45:29.564Z,34.90
2023-01-21T11:47:01.569Z,38.90
2023-01-21T11:48:35.206Z,37.00
2023-01-21T11:50:28.353Z,34.70
2023-01-21T11:52:15.682Z,37.10
2023-01-21T11:53:47.509Z,33.40
2023-01-21T11:55:23.871Z,34.90
2023-01-21T11:57:02.141Z,35.90
2023-01-21T11:58:40.206Z,34.40
2023-01-21T12:00:22.729Z,32.70
2023-01-21T12:02:04.991Z,31.60
2023-01-21T12:03:45.751Z,33.10
2023-01-21T12:05:27.088Z,34.10
2023-01-21T12:07:00.769Z,35.40
2023-01-21T12:08:37.580Z,33.80
2023-01-21T12:10:11.758Z,32.30
2023-01-21T12:12:08.423Z,34.10
2023-01-21T12:14:11.084Z,34.70
2023-01-21T12:16:16.943Z,31.50
2023-01-21T12:18:21.213Z,30.90
2023-01-21T12:20:17.310Z,33.40
2023-01-21T12:22:20.100Z,31.80
2023-01-21T12:24:29.750Z,33.90
2023-01-21T12:26:27.427Z,31.90
2023-01-21T12:28:27.070Z,29.10
2023-01-21T12:30:13.691Z,31.70
2023-01-21T12:31:55.103Z,31.90
2023-01-21T12:33:32.744Z,37.10
2023-01-21T12:35:44.029Z,32.30
2023-01-21T12:37:23.201Z,32.50
2023-01-21T12:39:30.161Z,30.80
2023-01-21T12:41:11.826Z,34.20
2023-01-21T12:42:51.628Z,33.40
2023-01-21T12:44:48.771Z,31.40
2023-01-21T12:46:28.064Z,30.70
2023-01-21T12:48:24.583Z,30.80
2023-01-21T12:50:05.743Z,29.20
2023-01-21T12:51:45.945Z,33.50
2023-01-21T12:53:42.526Z,32.40
2023-01-21T12:55:20.977Z,30.70
2023-01-21T12:57:09.853Z,34.00
2023-01-21T12:59:02.487Z,29.50
2023-01-21T13:00:41.109Z,34.10
2023-01-21T13:02:34.867Z,31.80
2023-01-21T13:05:00.733Z,33.70
2023-01-21T13:06:54.907Z,33.60
2023-01-21T13:09:04.772Z,35.00
2023-01-21T13:10:44.433Z,31.70
2023-01-21T13:12:22.490Z,32.40
2023-01-21T13:14:26.750Z,32.60
2023-01-21T13:16:06.375Z,36.20
2023-01-21T13:17:42.973Z,32.30
2023-01-21T13:19:16.328Z,28.80
2023-01-21T13:21:01.258Z,33.10
2023-01-21T13:22:45.870Z,33.30
2023-01-21T13:24:55.148Z,33.00
2023-01-21T13:26:48.056Z,30.70
2023-01-21T13:28:25.419Z,37.20
2023-01-21T13:30:06.140Z,33.50
2023-01-21T13:31:53.008Z,34.40
2023-01-21T13:33:30.512Z,33.40
2023-01-21T13:35:50.644Z,33.40
2023-01-21T13:37:58.449Z,30.70
2023-01-21T13:39:43.552Z,32.70
2023-01-21T13:41:15.212Z,31.50
2023-01-21T13:43:10.404Z,29.30
2023-01-21T13:44:51.005Z,34.90
2023-01-21T13:46:49.834Z,32.40
2023-01-21T13:48:50.863Z,32.90
2023-01-21T13:51:04.475Z,32.50
2023-01-21T13:53:20.023Z,32.50
2023-01-21T13:55:20.969Z,33.10
2023-01-21T13:57:13.483Z,31.50
2023-01-21T14:00:02.430Z,30.60
2023-01-21T14:02:00.770Z,30.80
2023-01-21T14:03:55.646Z,32.40
2023-01-21T14:05:59.908Z,25.10
2023-01-21T14:07:47.380Z,29.90
2023-01-21T14:09:43.971Z,27.50
2023-01-21T14:11:24.404Z,29.90
2023-01-21T14:13:30.342Z,27.90
2023-01-21T14:15:50.109Z,27.60
2023-01-21T14:18:05.272Z,30.20
2023-01-21T14:19:55.604Z,30.10
2023-01-21T14:22:02.864Z,26.20
2023-01-21T14:23:56.004Z,26.50
2023-01-21T14:26:03.018Z,24.20
2023-01-21T14:28:10.679Z,26.10
2023-01-21T14:29:53.861Z,24.30
2023-01-21T14:31:36.521Z,21.60
2023-01-21T14:33:20.253Z,23.50
2023-01-21T14:35:13.857Z,22.20
2023-01-21T14:37:11.770Z,22.70
2023-01-21T14:39:40.888Z,23.90
2023-01-21T14:41:12.945Z,26.90
2023-01-21T14:42:50.857Z,28.10
2023-01-21T14:45:03.876Z,25.40
2023-01-21T14:46:35.751Z,26.20
2023-01-21T14:48:41.672Z,23.30
2023-01-21T14:50:52.981Z,24.60
2023-01-21T14:52:33.000Z,22.90
2023-01-21T14:54:14.988Z,26.20
2023-01-21T14:56:22.555Z,24.90
2023-01-21T14:57:56.183Z,22.50
2023-01-21T14:59:49.697Z,27.70
2023-01-21T15:01:45.598Z,27.70
2023-01-21T15:03:28.950Z,28.60
2023-01-21T15:05:04.021Z,30.10
2023-01-21T15:06:39.871Z,27.00
2023-01-21T15:08:46.142Z,25.60
2023-01-21T15:10:26.527Z,24.90
2023-01-21T15:12:20.380Z,25.60
2023-01-21T15:14:12.331Z,28.70
2023-01-21T15:16:31.382Z,24.90
2023-01-21T15:18:09.525Z,28.30
2023-01-21T15:19:41.229Z,27.00
2023-01-21T15:21:40.470Z,24.80
2023-01-21T15:23:30.588Z,25.50
2023-01-21T15:25:19.382Z,26.00
2023-01-21T15:27:22.434Z,26.80
2023-01-21T15:28:58.075Z,22.90
2023-01-21T15:30:54.103Z,27.50
2023-01-21T15:32:44.913Z,30.10
2023-01-21T15:34:21.605Z,27.10
2023-01-21T15:35:55.435Z,30.80
2023-01-21T15:37:32.167Z,29.10
2023-01-21T15:39:18.021Z,27.70
2023-01-21T15:41:09.875Z,23.10
2023-01-21T15:43:03.091Z,21.60
2023-01-21T15:45:24.043Z,26.50
2023-01-21T15:47:37.695Z,23.00
2023-01-21T15:49:47.096Z,20.90
2023-01-21T15:51:51.071Z,20.10
2023-01-21T15:53:53.913Z,20.20
2023-01-21T15:55:46.049Z,20.50
2023-01-21T15:57:43.335Z,20.10
2023-01-21T15:59:41.350Z,22.20
2023-01-21T16:01:35.770Z,20.20
2023-01-21T16:03:29.064Z,19.80
2023-01-21T16:05:16.708Z,21.50
2023-01-21T16:07:05.793Z,21.30
2023-01-21T16:09:04.563Z,23.30
2023-01-21T16:11:16.248Z,22.20
2023-01-21T16:13:03.078Z,22.60
2023-01-21T16:14:34.824Z,24.10
2023-01-21T16:16:35.700Z,25.10
2023-01-21T16:18:25.164Z,18.40
2023-01-21T16:20:01.837Z,22.20
2023-01-21T16:21:37.333Z,24.50
2023-01-21T16:23:09.240Z,27.70
2023-01-21T16:24:48.719Z,24.30
2023-01-21T16:26:26.857Z,22.60
2023-01-21T16:27:58.639Z,21.10
2023-01-21T16:29:38.557Z,22.70
2023-01-21T16:31:10.600Z,22.20
2023-01-21T16:32:42.999Z,23.60
2023-01-21T16:34:22.927Z,24.20
2023-01-21T16:35:58.213Z,23.00
2023-01-21T16:37:33.083Z,26.40
2023-01-21T16:39:10.583Z,27.30
2023-01-21T16:40:43.195Z,23.70
2023-01-21T16:42:37.810Z,23.90
2023-01-21T16:44:16.850Z,22.60
2023-01-21T16:46:10.580Z,25.10
2023-01-21T16:47:44.252Z,24.60
2023-01-21T16:49:17.816Z,27.60
2023-01-21T16:50:50.343Z,26.20
2023-01-21T16:52:24.489Z,26.10
2023-01-21T16:54:19.181Z,25.20
2023-01-21T16:55:59.835Z,26.50
2023-01-21T16:57:32.354Z,27.00
2023-01-21T16:59:17.583Z,28.70
2023-01-21T17:01:15.707Z,28.40
2023-01-21T17:02:49.204Z,26.40
2023-01-21T17:04:21.210Z,27.20
2023-01-21T17:05:59.163Z,29.10
2023-01-21T17:07:51.891Z,32.80
2023-01-21T17:09:34.358Z,27.80
2023-01-21T17:11:11.937Z,26.60
2023-01-21T17:13:02.167Z,28.20
2023-01-21T17:14:36.968Z,28.70
2023-01-21T17:16:34.319Z,30.00
2023-01-21T17:18:17.184Z,28.80
2023-01-21T17:19:51.035Z,29.80
2023-01-21T17:21:34.560Z,28.40
2023-01-21T17:23:22.496Z,31.80
2023-01-21T17:25:08.511Z,31.60
2023-01-21T17:26:47.456Z,30.00
2023-01-21T17:28:39.531Z,34.10
2023-01-21T17:30:33.380Z,30.70
2023-01-21T17:32:22.182Z,31.60
2023-01-21T17:34:17.512Z,34.00
2023-01-21T17:36:11.813Z,33.50
2023-01-21T17:38:03.497Z,33.70
2023-01-21T17:39:49.758Z,32.00
2023-01-21T17:41:29.505Z,33.00
2023-01-21T17:43:20.365Z,30.40
2023-01-21T17:44:57.245Z,32.60
2023-01-21T17:46:30.317Z,29.50
2023-01-21T17:48:10.207Z,34.20
2023-01-21T17:49:45.812Z,32.20
2023-01-21T17:51:25.476Z,31.50
2023-01-21T17:53:04.595Z,29.60
2023-01-21T17:54:36.414Z,31.00
2023-01-21T17:56:08.806Z,30.70
2023-01-21T17:57:40.675Z,31.30
2023-01-21T17:59:38.381Z,32.30
2023-01-21T18:01:10.762Z,32.60
2023-01-21T18:02:42.645Z,32.00
2023-01-21T18:04:14.506Z,33.70
2023-01-21T18:05:46.560Z,31.90
2023-01-21T18:07:31.783Z,31.70
2023-01-21T18:09:05.786Z,32.20
2023-01-21T18:10:38.943Z,28.50
2023-01-21T18:12:11.320Z,36.30
2023-01-21T18:13:43.455Z,28.90
2023-01-21T18:15:18.467Z,35.90
2023-01-21T18:16:53.559Z,29.60
2023-01-21T18:18:29.398Z,30.00
2023-01-21T18:20:01.217Z,30.60
2023-01-21T18:21:33.097Z,30.00
2023-01-21T18:23:04.874Z,31.70
2023-01-21T18:24:37.297Z,29.50
2023-01-21T18:26:23.381Z,33.90
2023-01-21T18:27:56.324Z,31.40
2023-01-21T18:29:32.010Z,31.50
2023-01-21T18:31:04.875Z,31.70
2023-01-21T18:32:37.977Z,31.90
2023-01-21T18:34:11.370Z,31.50
2023-01-21T18:35:47.609Z,33.50
2023-01-21T18:37:20.628Z,30.30
2023-01-21T18:38:52.484Z,32.60
2023-01-21T18:40:24.665Z,30.70
2023-01-21T18:41:56.361Z,35.10
2023-01-21T18:43:28.140Z,36.90
2023-01-21T18:45:00.038Z,28.80
2023-01-21T18:46:31.902Z,36.90
2023-01-21T18:48:03.858Z,30.80
2023-01-21T18:49:35.750Z,35.60
2023-01-21T18:51:08.931Z,30.50
2023-01-21T18:52:40.735Z,36.40
2023-01-21T18:54:14.945Z,31.70
2023-01-21T18:55:50.848Z,31.90
2023-01-21T18:57:23.123Z,34.40
2023-01-21T18:58:54.854Z,29.20
2023-01-21T19:00:33.896Z,33.80
2023-01-21T19:02:18.258Z,32.80
2023-01-21T19:03:53.858Z,35.90
2023-01-21T19:05:38.414Z,32.10
2023-01-21T19:07:22.394Z,33.80
2023-01-21T19:08:55.117Z,32.40
2023-01-21T19:10:27.965Z,28.60
2023-01-21T19:11:59.715Z,35.00
2023-01-21T19:13:31.509Z,38.00
2023-01-21T19:15:04.879Z,35.10
2023-01-21T19:16:36.784Z,31.10
2023-01-21T19:18:13.900Z,30.50
2023-01-21T19:19:45.693Z,33.60
2023-01-21T19:21:17.646Z,33.20
2023-01-21T19:22:51.602Z,32.10
2023-01-21T19:24:23.379Z,35.80
2023-01-21T19:25:57.755Z,33.40
2023-01-21T19:27:34.678Z,34.60
2023-01-21T19:29:16.413Z,36.60
2023-01-21T19:30:49.823Z,34.90
2023-01-21T19:32:21.679Z,35.10
2023-01-21T19:33:53.543Z,35.80
2023-01-21T19:35:34.229Z,35.60
2023-01-21T19:37:09.374Z,38.20
2023-01-21T19:38:43.909Z,38.80
2023-01-21T19:40:20.111Z,40.60
2023-01-21T19:42:07.045Z,37.50
2023-01-21T19:43:41.343Z,38.60
2023-01-21T19:45:14.854Z,39.10
2023-01-21T19:46:46.715Z,42.10
2023-01-21T19:48:21.524Z,39.00
2023-01-21T19:49:53.256Z,41.10
2023-01-21T19:51:25.232Z,40.10
2023-01-21T19:52:57.053Z,41.30
2023-01-21T19:54:28.809Z,43.40
2023-01-21T19:56:01.347Z,43.70
2023-01-21T19:57:33.724Z,44.70
2023-01-21T19:59:05.741Z,41.10
2023-01-21T20:00:37.607Z,41.40
2023-01-21T20:02:11.839Z,41.00
2023-01-21T20:03:58.730Z,40.00
2023-01-21T20:05:35.989Z,42.40
2023-01-21T20:07:15.993Z,41.30
2023-01-21T20:08:47.920Z,46.30
2023-01-21T20:10:26.619Z,44.70
2023-01-21T20:11:58.484Z,42.20
2023-01-21T20:13:32.317Z,43.40
2023-01-21T20:15:04.669Z,43.70
2023-01-21T20:16:50.527Z,43.30
2023-01-21T20:18:28.173Z,46.40
2023-01-21T20:19:59.893Z,41.10
2023-01-21T20:21:31.632Z,46.90
2023-01-21T20:23:03.437Z,44.20
2023-01-21T20:24:35.288Z,41.30
2023-01-21T20:26:14.316Z,40.80
2023-01-21T20:28:00.474Z,40.60
2023-01-21T20:29:32.244Z,41.10
2023-01-21T20:31:07.178Z,42.70
2023-01-21T20:32:39.054Z,38.60
2023-01-21T20:34:11.684Z,39.90
2023-01-21T20:35:47.765Z,38.50
2023-01-21T20:37:19.601Z,37.50
2023-01-21T20:38:53.460Z,34.00
2023-01-21T20:40:29.554Z,33.20
2023-01-21T20:42:01.313Z,37.30
2023-01-21T20:43:33.486Z,41.40
2023-01-21T20:45:06.064Z,38.60
2023-01-21T20:46:38.972Z,41.70
2023-01-21T20:48:24.933Z,38.10
2023-01-21T20:49:56.960Z,36.70
2023-01-21T20:51:28.792Z,36.20
2023-01-21T20:53:01.323Z,37.70
2023-01-21T20:54:33.182Z,35.40
2023-01-21T20:56:28.976Z,33.90
2023-01-21T20:58:00.747Z,36.60
2023-01-21T20:59:32.525Z,33.70
2023-01-21T21:01:04.713Z,32.50
2023-01-21T21:02:36.534Z,34.50
2023-01-21T21:04:08.311Z,40.10
2023-01-21T21:05:40.463Z,35.10
2023-01-21T21:07:16.354Z,34.50
2023-01-21T21:08:50.112Z,33.10
2023-01-21T21:10:36.095Z,32.90
2023-01-21T21:12:07.894Z,32.90
2023-01-21T21:13:39.699Z,34.50
2023-01-21T21:15:12.884Z,32.00
2023-01-21T21:16:44.644Z,35.20
2023-01-21T21:18:16.448Z,31.30